sensor_id;sensor_type;location;lat;lon;timestamp;temperature;humidity
85614;DHT22;76041;50.924;3.932;2024-03-06T00:01:43;9.40;78.20
85614;DHT22;76041;50.924;3.932;2024-03-06T00:04:08;9.20;79.00
85614;DHT22;76041;50.924;3.932;2024-03-06T00:06:34;8.90;80.00
85614;DHT22;76041;50.924;3.932;2024-03-06T00:09:00;8.60;80.50
85614;DHT22;76041;50.924;3.932;2024-03-06T00:11:28;8.50;81.30
85614;DHT22;76041;50.924;3.932;2024-03-06T00:13:54;8.60;81.30
85614;DHT22;76041;50.924;3.932;2024-03-06T00:16:20;8.70;80.70
85614;DHT22;76041;50.924;3.932;2024-03-06T00:18:46;8.60;80.80
85614;DHT22;76041;50.924;3.932;2024-03-06T00:21:12;8.60;81.00
85614;DHT22;76041;50.924;3.932;2024-03-06T00:23:39;8.70;80.80
85614;DHT22;76041;50.924;3.932;2024-03-06T00:26:04;8.90;80.40
85614;DHT22;76041;50.924;3.932;2024-03-06T00:28:30;9.00;79.60
85614;DHT22;76041;50.924;3.932;2024-03-06T00:30:56;8.90;79.60
85614;DHT22;76041;50.924;3.932;2024-03-06T00:33:23;9.00;79.60
85614;DHT22;76041;50.924;3.932;2024-03-06T00:35:49;8.90;79.80
85614;DHT22;76041;50.924;3.932;2024-03-06T00:38:15;8.80;80.20
85614;DHT22;76041;50.924;3.932;2024-03-06T00:40:41;8.90;80.10
85614;DHT22;76041;50.924;3.932;2024-03-06T00:43:07;8.70;80.50
85614;DHT22;76041;50.924;3.932;2024-03-06T00:45:33;8.70;80.80
85614;DHT22;76041;50.924;3.932;2024-03-06T00:47:59;8.90;80.30
85614;DHT22;76041;50.924;3.932;2024-03-06T00:50:24;9.00;80.00
85614;DHT22;76041;50.924;3.932;2024-03-06T00:52:50;9.10;79.50
85614;DHT22;76041;50.924;3.932;2024-03-06T00:55:16;9.20;79.10
85614;DHT22;76041;50.924;3.932;2024-03-06T00:57:42;9.10;78.90
85614;DHT22;76041;50.924;3.932;2024-03-06T01:00:08;9.10;78.80
85614;DHT22;76041;50.924;3.932;2024-03-06T01:02:37;9.20;78.90
85614;DHT22;76041;50.924;3.932;2024-03-06T01:05:04;9.20;79.00
85614;DHT22;76041;50.924;3.932;2024-03-06T01:07:30;9.20;78.90
85614;DHT22;76041;50.924;3.932;2024-03-06T01:09:57;9.20;79.00
85614;DHT22;76041;50.924;3.932;2024-03-06T01:12:26;9.20;79.10
85614;DHT22;76041;50.924;3.932;2024-03-06T01:14:51;9.20;79.40
85614;DHT22;76041;50.924;3.932;2024-03-06T01:17:17;9.20;79.20
85614;DHT22;76041;50.924;3.932;2024-03-06T01:19:44;9.20;78.40
85614;DHT22;76041;50.924;3.932;2024-03-06T01:22:10;9.20;78.30
85614;DHT22;76041;50.924;3.932;2024-03-06T01:24:36;9.20;78.10
85614;DHT22;76041;50.924;3.932;2024-03-06T01:27:02;9.20;78.70
85614;DHT22;76041;50.924;3.932;2024-03-06T01:29:29;9.10;78.80
85614;DHT22;76041;50.924;3.932;2024-03-06T01:31:55;9.10;78.40
85614;DHT22;76041;50.924;3.932;2024-03-06T01:34:21;9.10;78.20
85614;DHT22;76041;50.924;3.932;2024-03-06T01:36:48;9.00;78.20
85614;DHT22;76041;50.924;3.932;2024-03-06T01:39:14;9.00;78.20
85614;DHT22;76041;50.924;3.932;2024-03-06T01:41:50;9.00;78.80
85614;DHT22;76041;50.924;3.932;2024-03-06T01:44:17;9.00;78.80
85614;DHT22;76041;50.924;3.932;2024-03-06T01:46:44;8.90;78.80
85614;DHT22;76041;50.924;3.932;2024-03-06T01:49:15;8.90;79.10
85614;DHT22;76041;50.924;3.932;2024-03-06T01:51:42;8.80;79.20
85614;DHT22;76041;50.924;3.932;2024-03-06T01:54:09;8.70;79.30
85614;DHT22;76041;50.924;3.932;2024-03-06T01:56:37;8.70;79.40
85614;DHT22;76041;50.924;3.932;2024-03-06T01:59:04;8.70;79.30
85614;DHT22;76041;50.924;3.932;2024-03-06T02:01:31;8.70;79.10
85614;DHT22;76041;50.924;3.932;2024-03-06T02:03:59;8.80;78.30
85614;DHT22;76041;50.924;3.932;2024-03-06T02:06:25;8.70;77.50
85614;DHT22;76041;50.924;3.932;2024-03-06T02:08:51;8.70;77.20
85614;DHT22;76041;50.924;3.932;2024-03-06T02:11:17;8.70;77.60
85614;DHT22;76041;50.924;3.932;2024-03-06T02:13:43;8.60;77.90
85614;DHT22;76041;50.924;3.932;2024-03-06T02:16:10;8.50;78.30
85614;DHT22;76041;50.924;3.932;2024-03-06T02:18:37;8.50;78.00
85614;DHT22;76041;50.924;3.932;2024-03-06T02:21:03;8.50;78.10
85614;DHT22;76041;50.924;3.932;2024-03-06T02:23:30;8.50;78.00
85614;DHT22;76041;50.924;3.932;2024-03-06T02:25:56;8.50;77.80
85614;DHT22;76041;50.924;3.932;2024-03-06T02:28:22;8.40;77.90
85614;DHT22;76041;50.924;3.932;2024-03-06T02:30:51;8.40;77.90
85614;DHT22;76041;50.924;3.932;2024-03-06T02:33:17;8.40;77.60
85614;DHT22;76041;50.924;3.932;2024-03-06T02:35:45;8.30;77.40
85614;DHT22;76041;50.924;3.932;2024-03-06T02:38:11;8.20;77.80
85614;DHT22;76041;50.924;3.932;2024-03-06T02:40:37;8.20;77.50
85614;DHT22;76041;50.924;3.932;2024-03-06T02:43:03;8.20;77.40
85614;DHT22;76041;50.924;3.932;2024-03-06T02:45:30;8.20;77.20
85614;DHT22;76041;50.924;3.932;2024-03-06T02:47:56;8.20;77.10
85614;DHT22;76041;50.924;3.932;2024-03-06T02:50:22;8.10;77.10
85614;DHT22;76041;50.924;3.932;2024-03-06T02:52:48;8.10;77.20
85614;DHT22;76041;50.924;3.932;2024-03-06T02:55:14;8.00;77.20
85614;DHT22;76041;50.924;3.932;2024-03-06T02:57:40;8.00;76.90
85614;DHT22;76041;50.924;3.932;2024-03-06T03:00:07;8.00;77.00
85614;DHT22;76041;50.924;3.932;2024-03-06T03:02:39;7.90;77.50
85614;DHT22;76041;50.924;3.932;2024-03-06T03:05:05;7.80;77.70
85614;DHT22;76041;50.924;3.932;2024-03-06T03:07:31;7.80;77.40
85614;DHT22;76041;50.924;3.932;2024-03-06T03:09:57;7.70;77.50
85614;DHT22;76041;50.924;3.932;2024-03-06T03:12:23;7.70;77.40
85614;DHT22;76041;50.924;3.932;2024-03-06T03:14:49;7.60;77.60
85614;DHT22;76041;50.924;3.932;2024-03-06T03:17:17;7.60;77.60
85614;DHT22;76041;50.924;3.932;2024-03-06T03:19:43;7.60;77.70
85614;DHT22;76041;50.924;3.932;2024-03-06T03:22:09;7.50;78.00
85614;DHT22;76041;50.924;3.932;2024-03-06T03:24:36;7.50;78.50
85614;DHT22;76041;50.924;3.932;2024-03-06T03:27:02;7.50;78.00
85614;DHT22;76041;50.924;3.932;2024-03-06T03:29:29;7.50;77.80
85614;DHT22;76041;50.924;3.932;2024-03-06T03:31:55;7.50;77.60
85614;DHT22;76041;50.924;3.932;2024-03-06T03:34:22;7.50;77.30
85614;DHT22;76041;50.924;3.932;2024-03-06T03:36:48;7.50;77.20
85614;DHT22;76041;50.924;3.932;2024-03-06T03:39:14;7.50;77.80
85614;DHT22;76041;50.924;3.932;2024-03-06T03:41:47;7.50;78.00
85614;DHT22;76041;50.924;3.932;2024-03-06T03:44:17;7.50;78.30
85614;DHT22;76041;50.924;3.932;2024-03-06T03:46:46;7.40;78.50
85614;DHT22;76041;50.924;3.932;2024-03-06T03:49:12;7.40;78.80
85614;DHT22;76041;50.924;3.932;2024-03-06T03:51:40;7.40;78.40
85614;DHT22;76041;50.924;3.932;2024-03-06T03:54:06;7.40;78.70
85614;DHT22;76041;50.924;3.932;2024-03-06T03:56:32;7.50;78.50
85614;DHT22;76041;50.924;3.932;2024-03-06T03:58:59;7.50;78.00
85614;DHT22;76041;50.924;3.932;2024-03-06T04:01:25;7.40;77.80
85614;DHT22;76041;50.924;3.932;2024-03-06T04:03:51;7.40;77.70
85614;DHT22;76041;50.924;3.932;2024-03-06T04:06:17;7.40;77.80
85614;DHT22;76041;50.924;3.932;2024-03-06T04:08:44;7.40;77.40
85614;DHT22;76041;50.924;3.932;2024-03-06T04:11:10;7.40;77.40
85614;DHT22;76041;50.924;3.932;2024-03-06T04:13:37;7.30;77.50
85614;DHT22;76041;50.924;3.932;2024-03-06T04:16:04;7.30;77.40
85614;DHT22;76041;50.924;3.932;2024-03-06T04:18:31;7.20;77.50
85614;DHT22;76041;50.924;3.932;2024-03-06T04:21:05;7.10;78.60
85614;DHT22;76041;50.924;3.932;2024-03-06T04:23:32;7.20;77.60
85614;DHT22;76041;50.924;3.932;2024-03-06T04:25:59;7.10;77.40
85614;DHT22;76041;50.924;3.932;2024-03-06T04:28:25;7.10;77.00
85614;DHT22;76041;50.924;3.932;2024-03-06T04:30:51;7.00;77.00
85614;DHT22;76041;50.924;3.932;2024-03-06T04:33:17;7.00;77.20
85614;DHT22;76041;50.924;3.932;2024-03-06T04:35:43;7.00;77.30
85614;DHT22;76041;50.924;3.932;2024-03-06T04:38:09;7.00;77.40
85614;DHT22;76041;50.924;3.932;2024-03-06T04:40:34;6.90;77.20
85614;DHT22;76041;50.924;3.932;2024-03-06T04:43:01;6.90;77.00
85614;DHT22;76041;50.924;3.932;2024-03-06T04:45:27;6.80;77.00
85614;DHT22;76041;50.924;3.932;2024-03-06T04:47:54;6.80;77.20
85614;DHT22;76041;50.924;3.932;2024-03-06T04:50:20;6.80;76.10
85614;DHT22;76041;50.924;3.932;2024-03-06T04:52:46;6.70;76.00
85614;DHT22;76041;50.924;3.932;2024-03-06T04:55:13;6.60;76.10
85614;DHT22;76041;50.924;3.932;2024-03-06T04:57:43;6.60;76.40
85614;DHT22;76041;50.924;3.932;2024-03-06T05:00:10;6.50;77.00
85614;DHT22;76041;50.924;3.932;2024-03-06T05:02:37;6.50;77.10
85614;DHT22;76041;50.924;3.932;2024-03-06T05:05:03;6.40;77.30
85614;DHT22;76041;50.924;3.932;2024-03-06T05:07:30;6.50;77.30
85614;DHT22;76041;50.924;3.932;2024-03-06T05:09:57;6.40;77.30
85614;DHT22;76041;50.924;3.932;2024-03-06T05:12:25;6.40;77.80
85614;DHT22;76041;50.924;3.932;2024-03-06T05:14:51;6.40;77.60
85614;DHT22;76041;50.924;3.932;2024-03-06T05:17:18;6.40;77.90
85614;DHT22;76041;50.924;3.932;2024-03-06T05:19:44;6.50;77.40
85614;DHT22;76041;50.924;3.932;2024-03-06T05:22:10;6.40;77.70
85614;DHT22;76041;50.924;3.932;2024-03-06T05:24:39;6.40;77.90
85614;DHT22;76041;50.924;3.932;2024-03-06T05:27:05;6.40;77.90
85614;DHT22;76041;50.924;3.932;2024-03-06T05:29:32;6.40;78.30
85614;DHT22;76041;50.924;3.932;2024-03-06T05:31:58;6.40;77.90
85614;DHT22;76041;50.924;3.932;2024-03-06T05:34:24;6.50;78.00
85614;DHT22;76041;50.924;3.932;2024-03-06T05:36:50;6.50;78.00
85614;DHT22;76041;50.924;3.932;2024-03-06T05:39:16;6.50;78.00
85614;DHT22;76041;50.924;3.932;2024-03-06T05:41:43;6.50;78.60
85614;DHT22;76041;50.924;3.932;2024-03-06T05:44:10;6.50;78.70
85614;DHT22;76041;50.924;3.932;2024-03-06T05:46:36;6.50;78.90
85614;DHT22;76041;50.924;3.932;2024-03-06T05:49:02;6.50;78.70
85614;DHT22;76041;50.924;3.932;2024-03-06T05:51:29;6.50;78.40
85614;DHT22;76041;50.924;3.932;2024-03-06T05:53:55;6.50;78.50
85614;DHT22;76041;50.924;3.932;2024-03-06T05:56:20;6.50;78.70
85614;DHT22;76041;50.924;3.932;2024-03-06T05:58:46;6.50;78.70
85614;DHT22;76041;50.924;3.932;2024-03-06T06:01:14;6.50;78.50
85614;DHT22;76041;50.924;3.932;2024-03-06T06:03:41;6.50;78.30
85614;DHT22;76041;50.924;3.932;2024-03-06T06:06:07;6.50;78.00
85614;DHT22;76041;50.924;3.932;2024-03-06T06:08:36;6.40;78.30
85614;DHT22;76041;50.924;3.932;2024-03-06T06:11:02;6.40;78.70
85614;DHT22;76041;50.924;3.932;2024-03-06T06:13:30;6.40;78.00
85614;DHT22;76041;50.924;3.932;2024-03-06T06:15:59;6.40;77.90
85614;DHT22;76041;50.924;3.932;2024-03-06T06:18:28;6.40;78.20
85614;DHT22;76041;50.924;3.932;2024-03-06T06:20:54;6.40;78.10
85614;DHT22;76041;50.924;3.932;2024-03-06T06:23:20;6.40;77.90
85614;DHT22;76041;50.924;3.932;2024-03-06T06:25:46;6.30;77.90
85614;DHT22;76041;50.924;3.932;2024-03-06T06:28:12;6.30;77.80
85614;DHT22;76041;50.924;3.932;2024-03-06T06:30:38;6.30;77.90
85614;DHT22;76041;50.924;3.932;2024-03-06T06:33:04;6.30;78.20
85614;DHT22;76041;50.924;3.932;2024-03-06T06:35:31;6.30;78.50
85614;DHT22;76041;50.924;3.932;2024-03-06T06:37:57;6.30;78.60
85614;DHT22;76041;50.924;3.932;2024-03-06T06:40:23;6.30;78.50
85614;DHT22;76041;50.924;3.932;2024-03-06T06:42:49;6.30;78.20
85614;DHT22;76041;50.924;3.932;2024-03-06T06:45:16;6.40;77.90
85614;DHT22;76041;50.924;3.932;2024-03-06T06:47:42;6.30;77.70
85614;DHT22;76041;50.924;3.932;2024-03-06T06:50:09;6.30;77.50
85614;DHT22;76041;50.924;3.932;2024-03-06T06:52:35;6.30;77.50
85614;DHT22;76041;50.924;3.932;2024-03-06T06:55:01;6.30;77.90
85614;DHT22;76041;50.924;3.932;2024-03-06T06:57:28;6.20;77.80
85614;DHT22;76041;50.924;3.932;2024-03-06T06:59:54;6.30;77.80
85614;DHT22;76041;50.924;3.932;2024-03-06T07:02:19;6.20;78.30
85614;DHT22;76041;50.924;3.932;2024-03-06T07:04:45;6.20;78.30
85614;DHT22;76041;50.924;3.932;2024-03-06T07:07:11;6.20;78.40
85614;DHT22;76041;50.924;3.932;2024-03-06T07:09:37;6.20;78.50
85614;DHT22;76041;50.924;3.932;2024-03-06T07:12:03;6.20;78.40
85614;DHT22;76041;50.924;3.932;2024-03-06T07:14:30;6.20;78.60
85614;DHT22;76041;50.924;3.932;2024-03-06T07:16:56;6.30;78.80
85614;DHT22;76041;50.924;3.932;2024-03-06T07:19:21;6.20;79.00
85614;DHT22;76041;50.924;3.932;2024-03-06T07:21:47;6.30;79.40
85614;DHT22;76041;50.924;3.932;2024-03-06T07:24:14;6.30;79.70
85614;DHT22;76041;50.924;3.932;2024-03-06T07:26:40;6.30;80.10
85614;DHT22;76041;50.924;3.932;2024-03-06T07:29:06;6.20;80.30
85614;DHT22;76041;50.924;3.932;2024-03-06T07:31:39;6.20;80.50
85614;DHT22;76041;50.924;3.932;2024-03-06T07:34:09;6.20;80.90
85614;DHT22;76041;50.924;3.932;2024-03-06T07:36:35;6.20;81.20
85614;DHT22;76041;50.924;3.932;2024-03-06T07:39:02;6.30;81.50
85614;DHT22;76041;50.924;3.932;2024-03-06T07:41:28;6.40;81.70
85614;DHT22;76041;50.924;3.932;2024-03-06T07:43:54;6.40;81.70
85614;DHT22;76041;50.924;3.932;2024-03-06T07:46:21;6.50;81.60
85614;DHT22;76041;50.924;3.932;2024-03-06T07:48:47;6.60;81.70
85614;DHT22;76041;50.924;3.932;2024-03-06T07:51:13;6.60;82.20
85614;DHT22;76041;50.924;3.932;2024-03-06T07:53:39;6.60;82.80
85614;DHT22;76041;50.924;3.932;2024-03-06T07:56:05;6.70;83.10
85614;DHT22;76041;50.924;3.932;2024-03-06T07:58:31;6.80;83.70
85614;DHT22;76041;50.924;3.932;2024-03-06T08:00:57;7.00;83.20
85614;DHT22;76041;50.924;3.932;2024-03-06T08:03:24;7.00;82.50
85614;DHT22;76041;50.924;3.932;2024-03-06T08:05:54;7.00;83.30
85614;DHT22;76041;50.924;3.932;2024-03-06T08:08:20;6.90;84.30
85614;DHT22;76041;50.924;3.932;2024-03-06T08:10:46;6.90;85.60
85614;DHT22;76041;50.924;3.932;2024-03-06T08:13:13;7.00;85.90
85614;DHT22;76041;50.924;3.932;2024-03-06T08:15:39;7.10;86.70
85614;DHT22;76041;50.924;3.932;2024-03-06T08:18:06;7.50;85.10
85614;DHT22;76041;50.924;3.932;2024-03-06T08:20:32;7.50;84.60
85614;DHT22;76041;50.924;3.932;2024-03-06T08:22:59;7.50;84.50
85614;DHT22;76041;50.924;3.932;2024-03-06T08:25:25;7.60;84.90
85614;DHT22;76041;50.924;3.932;2024-03-06T08:27:51;7.70;84.70
85614;DHT22;76041;50.924;3.932;2024-03-06T08:30:17;7.60;85.10
85614;DHT22;76041;50.924;3.932;2024-03-06T08:32:43;7.70;84.70
85614;DHT22;76041;50.924;3.932;2024-03-06T08:35:11;7.70;84.70
85614;DHT22;76041;50.924;3.932;2024-03-06T08:37:37;7.60;85.30
85614;DHT22;76041;50.924;3.932;2024-03-06T08:40:05;7.70;84.90
85614;DHT22;76041;50.924;3.932;2024-03-06T08:42:31;7.70;86.00
85614;DHT22;76041;50.924;3.932;2024-03-06T08:44:58;7.80;85.40
85614;DHT22;76041;50.924;3.932;2024-03-06T08:47:24;8.00;84.70
85614;DHT22;76041;50.924;3.932;2024-03-06T08:49:50;8.00;84.50
85614;DHT22;76041;50.924;3.932;2024-03-06T08:52:16;8.20;84.10
85614;DHT22;76041;50.924;3.932;2024-03-06T08:54:42;8.30;83.70
85614;DHT22;76041;50.924;3.932;2024-03-06T08:57:08;8.20;84.50
85614;DHT22;76041;50.924;3.932;2024-03-06T08:59:34;8.20;85.40
85614;DHT22;76041;50.924;3.932;2024-03-06T09:02:12;8.20;85.30
85614;DHT22;76041;50.924;3.932;2024-03-06T09:04:41;8.30;85.40
85614;DHT22;76041;50.924;3.932;2024-03-06T09:07:07;8.30;85.10
85614;DHT22;76041;50.924;3.932;2024-03-06T09:09:34;8.30;85.70
85614;DHT22;76041;50.924;3.932;2024-03-06T09:12:01;8.20;85.10
85614;DHT22;76041;50.924;3.932;2024-03-06T09:14:26;8.10;86.30
85614;DHT22;76041;50.924;3.932;2024-03-06T09:16:52;8.30;86.20
85614;DHT22;76041;50.924;3.932;2024-03-06T09:19:19;8.50;85.30
85614;DHT22;76041;50.924;3.932;2024-03-06T09:21:44;8.60;85.00
85614;DHT22;76041;50.924;3.932;2024-03-06T09:24:10;8.60;84.80
85614;DHT22;76041;50.924;3.932;2024-03-06T09:26:36;8.60;84.40
85614;DHT22;76041;50.924;3.932;2024-03-06T09:29:02;8.70;83.90
85614;DHT22;76041;50.924;3.932;2024-03-06T09:31:29;8.70;84.40
85614;DHT22;76041;50.924;3.932;2024-03-06T09:33:55;8.70;84.30
85614;DHT22;76041;50.924;3.932;2024-03-06T09:36:21;8.80;83.80
85614;DHT22;76041;50.924;3.932;2024-03-06T09:38:47;9.00;83.70
85614;DHT22;76041;50.924;3.932;2024-03-06T09:41:13;9.20;83.10
85614;DHT22;76041;50.924;3.932;2024-03-06T09:43:39;9.20;83.50
85614;DHT22;76041;50.924;3.932;2024-03-06T09:46:07;9.10;83.60
85614;DHT22;76041;50.924;3.932;2024-03-06T09:48:33;9.20;83.60
85614;DHT22;76041;50.924;3.932;2024-03-06T09:51:03;9.20;82.80
85614;DHT22;76041;50.924;3.932;2024-03-06T09:53:29;9.20;83.10
85614;DHT22;76041;50.924;3.932;2024-03-06T09:55:56;9.10;83.50
85614;DHT22;76041;50.924;3.932;2024-03-06T09:58:23;9.10;83.30
85614;DHT22;76041;50.924;3.932;2024-03-06T10:00:54;9.20;83.40
85614;DHT22;76041;50.924;3.932;2024-03-06T10:03:21;9.30;82.30
85614;DHT22;76041;50.924;3.932;2024-03-06T10:05:46;9.40;82.70
85614;DHT22;76041;50.924;3.932;2024-03-06T10:08:12;9.50;82.10
85614;DHT22;76041;50.924;3.932;2024-03-06T10:10:42;9.60;79.80
85614;DHT22;76041;50.924;3.932;2024-03-06T10:13:09;9.70;80.00
85614;DHT22;76041;50.924;3.932;2024-03-06T10:15:34;9.70;79.60
85614;DHT22;76041;50.924;3.932;2024-03-06T10:18:15;9.90;79.40
85614;DHT22;76041;50.924;3.932;2024-03-06T10:20:42;9.80;80.20
85614;DHT22;76041;50.924;3.932;2024-03-06T10:23:11;10.00;80.60
85614;DHT22;76041;50.924;3.932;2024-03-06T10:25:37;10.20;79.00
85614;DHT22;76041;50.924;3.932;2024-03-06T10:28:05;10.30;78.40
85614;DHT22;76041;50.924;3.932;2024-03-06T10:30:39;10.50;78.40
85614;DHT22;76041;50.924;3.932;2024-03-06T10:33:09;10.50;77.40
85614;DHT22;76041;50.924;3.932;2024-03-06T10:35:36;10.70;77.30
85614;DHT22;76041;50.924;3.932;2024-03-06T10:38:04;10.90;78.00
85614;DHT22;76041;50.924;3.932;2024-03-06T10:40:35;11.20;76.10
85614;DHT22;76041;50.924;3.932;2024-03-06T10:43:03;11.30;74.90
85614;DHT22;76041;50.924;3.932;2024-03-06T10:45:50;11.60;75.20
85614;DHT22;76041;50.924;3.932;2024-03-06T10:48:18;11.80;74.10
85614;DHT22;76041;50.924;3.932;2024-03-06T10:50:45;12.20;74.90
85614;DHT22;76041;50.924;3.932;2024-03-06T10:53:13;12.50;72.70
85614;DHT22;76041;50.924;3.932;2024-03-06T10:55:42;12.40;72.10
85614;DHT22;76041;50.924;3.932;2024-03-06T10:58:10;12.20;72.50
85614;DHT22;76041;50.924;3.932;2024-03-06T11:00:46;12.40;72.30
85614;DHT22;76041;50.924;3.932;2024-03-06T11:03:14;12.70;71.50
85614;DHT22;76041;50.924;3.932;2024-03-06T11:05:41;12.90;71.90
85614;DHT22;76041;50.924;3.932;2024-03-06T11:08:11;13.10;72.10
85614;DHT22;76041;50.924;3.932;2024-03-06T11:10:38;13.00;70.60
85614;DHT22;76041;50.924;3.932;2024-03-06T11:15:53;13.40;69.50
85614;DHT22;76041;50.924;3.932;2024-03-06T11:26:37;14.50;66.50
85614;DHT22;76041;50.924;3.932;2024-03-06T11:29:07;14.30;66.60
85614;DHT22;76041;50.924;3.932;2024-03-06T11:31:33;14.10;66.00
85614;DHT22;76041;50.924;3.932;2024-03-06T11:34:04;13.90;66.00
85614;DHT22;76041;50.924;3.932;2024-03-06T11:36:30;13.70;65.60
85614;DHT22;76041;50.924;3.932;2024-03-06T11:39:04;13.70;66.10
85614;DHT22;76041;50.924;3.932;2024-03-06T11:44:17;13.30;65.80
85614;DHT22;76041;50.924;3.932;2024-03-06T11:46:45;13.40;67.10
85614;DHT22;76041;50.924;3.932;2024-03-06T11:49:21;13.30;66.30
85614;DHT22;76041;50.924;3.932;2024-03-06T11:51:53;13.30;67.20
85614;DHT22;76041;50.924;3.932;2024-03-06T11:54:20;13.50;67.60
85614;DHT22;76041;50.924;3.932;2024-03-06T11:56:54;14.00;67.20
85614;DHT22;76041;50.924;3.932;2024-03-06T11:59:22;14.00;65.70
85614;DHT22;76041;50.924;3.932;2024-03-06T12:01:49;14.10;65.80
85614;DHT22;76041;50.924;3.932;2024-03-06T12:04:15;14.50;65.40
85614;DHT22;76041;50.924;3.932;2024-03-06T12:06:41;14.20;64.80
85614;DHT22;76041;50.924;3.932;2024-03-06T12:09:07;14.00;66.40
85614;DHT22;76041;50.924;3.932;2024-03-06T12:11:38;14.30;65.70
85614;DHT22;76041;50.924;3.932;2024-03-06T12:14:04;14.60;64.00
85614;DHT22;76041;50.924;3.932;2024-03-06T12:16:31;15.10;64.10
85614;DHT22;76041;50.924;3.932;2024-03-06T12:18:58;15.40;63.70
85614;DHT22;76041;50.924;3.932;2024-03-06T12:21:34;15.60;62.80
85614;DHT22;76041;50.924;3.932;2024-03-06T12:24:09;16.00;62.80
85614;DHT22;76041;50.924;3.932;2024-03-06T12:26:37;16.10;62.00
85614;DHT22;76041;50.924;3.932;2024-03-06T12:29:09;15.70;61.90
85614;DHT22;76041;50.924;3.932;2024-03-06T12:31:36;15.80;61.50
85614;DHT22;76041;50.924;3.932;2024-03-06T12:34:03;15.80;61.10
85614;DHT22;76041;50.924;3.932;2024-03-06T12:36:30;16.00;60.40
85614;DHT22;76041;50.924;3.932;2024-03-06T12:38:59;16.40;59.60
85614;DHT22;76041;50.924;3.932;2024-03-06T12:41:25;16.70;58.70
85614;DHT22;76041;50.924;3.932;2024-03-06T12:43:52;17.00;57.60
85614;DHT22;76041;50.924;3.932;2024-03-06T12:46:19;17.30;57.80
85614;DHT22;76041;50.924;3.932;2024-03-06T12:48:45;17.30;58.60
85614;DHT22;76041;50.924;3.932;2024-03-06T12:51:11;17.00;58.00
85614;DHT22;76041;50.924;3.932;2024-03-06T12:53:37;16.80;57.10
85614;DHT22;76041;50.924;3.932;2024-03-06T12:56:03;16.90;58.80
85614;DHT22;76041;50.924;3.932;2024-03-06T12:58:30;17.10;57.40
85614;DHT22;76041;50.924;3.932;2024-03-06T13:01:00;17.30;57.40
85614;DHT22;76041;50.924;3.932;2024-03-06T13:03:27;17.50;56.20
85614;DHT22;76041;50.924;3.932;2024-03-06T13:05:53;17.50;56.30
85614;DHT22;76041;50.924;3.932;2024-03-06T13:08:19;17.50;57.20
85614;DHT22;76041;50.924;3.932;2024-03-06T13:10:45;17.50;56.40
85614;DHT22;76041;50.924;3.932;2024-03-06T13:13:11;17.50;57.20
85614;DHT22;76041;50.924;3.932;2024-03-06T13:15:37;17.50;55.60
85614;DHT22;76041;50.924;3.932;2024-03-06T13:18:04;17.60;55.00
85614;DHT22;76041;50.924;3.932;2024-03-06T13:20:30;17.90;55.10
85614;DHT22;76041;50.924;3.932;2024-03-06T13:22:56;17.60;54.30
85614;DHT22;76041;50.924;3.932;2024-03-06T13:25:23;17.20;56.20
85614;DHT22;76041;50.924;3.932;2024-03-06T13:27:50;16.80;56.80
85614;DHT22;76041;50.924;3.932;2024-03-06T13:30:18;16.10;55.40
85614;DHT22;76041;50.924;3.932;2024-03-06T13:32:44;16.10;56.90
85614;DHT22;76041;50.924;3.932;2024-03-06T13:35:12;16.30;57.50
85614;DHT22;76041;50.924;3.932;2024-03-06T13:37:40;16.50;56.40
85614;DHT22;76041;50.924;3.932;2024-03-06T13:40:07;16.30;54.80
85614;DHT22;76041;50.924;3.932;2024-03-06T13:42:35;16.10;54.90
85614;DHT22;76041;50.924;3.932;2024-03-06T13:45:01;15.80;55.30
85614;DHT22;76041;50.924;3.932;2024-03-06T13:47:27;15.90;56.20
85614;DHT22;76041;50.924;3.932;2024-03-06T13:49:53;16.10;55.90
85614;DHT22;76041;50.924;3.932;2024-03-06T13:52:21;16.30;55.70
85614;DHT22;76041;50.924;3.932;2024-03-06T13:54:47;16.30;55.80
85614;DHT22;76041;50.924;3.932;2024-03-06T13:57:16;16.30;55.10
85614;DHT22;76041;50.924;3.932;2024-03-06T13:59:42;16.40;55.20
85614;DHT22;76041;50.924;3.932;2024-03-06T14:02:08;16.20;54.70
85614;DHT22;76041;50.924;3.932;2024-03-06T14:04:34;16.10;54.30
85614;DHT22;76041;50.924;3.932;2024-03-06T14:07:00;16.00;55.20
85614;DHT22;76041;50.924;3.932;2024-03-06T14:09:27;15.90;57.10
85614;DHT22;76041;50.924;3.932;2024-03-06T14:11:53;15.70;55.00
85614;DHT22;76041;50.924;3.932;2024-03-06T14:14:20;15.60;56.10
85614;DHT22;76041;50.924;3.932;2024-03-06T14:16:46;15.40;56.40
85614;DHT22;76041;50.924;3.932;2024-03-06T14:19:12;15.20;56.40
85614;DHT22;76041;50.924;3.932;2024-03-06T14:21:39;15.20;57.20
85614;DHT22;76041;50.924;3.932;2024-03-06T14:24:06;15.40;56.50
85614;DHT22;76041;50.924;3.932;2024-03-06T14:26:32;15.70;56.60
85614;DHT22;76041;50.924;3.932;2024-03-06T14:28:59;16.10;55.20
85614;DHT22;76041;50.924;3.932;2024-03-06T14:31:25;16.40;55.00
85614;DHT22;76041;50.924;3.932;2024-03-06T14:33:52;16.70;52.50
85614;DHT22;76041;50.924;3.932;2024-03-06T14:36:18;17.10;52.10
85614;DHT22;76041;50.924;3.932;2024-03-06T14:38:43;17.10;52.40
85614;DHT22;76041;50.924;3.932;2024-03-06T14:41:12;16.70;52.30
85614;DHT22;76041;50.924;3.932;2024-03-06T14:43:38;16.90;53.10
85614;DHT22;76041;50.924;3.932;2024-03-06T14:46:05;17.10;52.50
85614;DHT22;76041;50.924;3.932;2024-03-06T14:48:32;17.40;52.20
85614;DHT22;76041;50.924;3.932;2024-03-06T14:51:00;17.60;51.50
85614;DHT22;76041;50.924;3.932;2024-03-06T14:53:26;17.50;52.00
85614;DHT22;76041;50.924;3.932;2024-03-06T14:55:52;17.30;52.00
85614;DHT22;76041;50.924;3.932;2024-03-06T14:58:19;17.50;50.70
85614;DHT22;76041;50.924;3.932;2024-03-06T15:00:45;17.90;50.70
85614;DHT22;76041;50.924;3.932;2024-03-06T15:03:11;17.60;51.60
85614;DHT22;76041;50.924;3.932;2024-03-06T15:05:37;17.20;52.10
85614;DHT22;76041;50.924;3.932;2024-03-06T15:08:03;16.80;52.30
85614;DHT22;76041;50.924;3.932;2024-03-06T15:10:30;16.70;52.30
85614;DHT22;76041;50.924;3.932;2024-03-06T15:12:59;16.60;52.30
85614;DHT22;76041;50.924;3.932;2024-03-06T15:15:25;16.50;52.50
85614;DHT22;76041;50.924;3.932;2024-03-06T15:17:51;16.30;53.00
85614;DHT22;76041;50.924;3.932;2024-03-06T15:20:17;16.10;52.20
85614;DHT22;76041;50.924;3.932;2024-03-06T15:22:43;16.00;53.00
85614;DHT22;76041;50.924;3.932;2024-03-06T15:25:13;16.10;52.70
85614;DHT22;76041;50.924;3.932;2024-03-06T15:27:40;15.90;51.70
85614;DHT22;76041;50.924;3.932;2024-03-06T15:30:08;15.80;53.40
85614;DHT22;76041;50.924;3.932;2024-03-06T15:32:34;16.20;53.10
85614;DHT22;76041;50.924;3.932;2024-03-06T15:35:01;16.10;52.30
85614;DHT22;76041;50.924;3.932;2024-03-06T15:37:29;16.20;52.30
85614;DHT22;76041;50.924;3.932;2024-03-06T15:39:56;15.90;52.90
85614;DHT22;76041;50.924;3.932;2024-03-06T15:42:23;16.00;53.80
85614;DHT22;76041;50.924;3.932;2024-03-06T15:44:51;16.30;52.50
85614;DHT22;76041;50.924;3.932;2024-03-06T15:47:19;16.60;52.20
85614;DHT22;76041;50.924;3.932;2024-03-06T15:49:46;16.80;52.30
85614;DHT22;76041;50.924;3.932;2024-03-06T15:52:13;16.90;51.70